Time;durP1;ratioP1;P1;durP2;ratioP2;P2;SDS_P1;SDS_P2;PMS_P1;PMS_P2;Temp;Humidity;BMP_temperature;BMP_pressure;BME280_temperature;BME280_humidity;BME280_pressure;Samples;Min_cycle;Max_cycle;Signal;HPM_P1;HPM_P2
2022/03/03 00:01:04;;;;;;;0.40;0.30;;;;;;;-1.00;75.86;101711.81;5094304;28;20489;-69
2022/03/03 00:03:31;;;;;;;0.40;0.30;;;;;;;-0.92;75.60;101695.69;5093860;28;20988;-70
2022/03/03 00:05:57;;;;;;;15.60;14.50;;;;;;;-1.03;74.54;101694.41;5094118;28;20444;-69
2022/03/03 00:08:24;;;;;;;0.40;0.30;;;;;;;-1.06;75.21;101687.66;5094270;28;20444;-69
2022/03/03 00:10:50;;;;;;;0.53;0.53;;;;;;;-1.02;76.17;101696.03;5094098;28;20941;-69
2022/03/03 00:13:17;;;;;;;0.40;0.30;;;;;;;-0.94;75.98;101684.44;5093938;28;20463;-70
2022/03/03 00:15:45;;;;;;;11.93;11.23;;;;;;;-1.06;76.18;101686.84;5093962;28;20489;-70
2022/03/03 00:18:11;;;;;;;0.40;0.30;;;;;;;-1.05;76.28;101696.44;5093695;28;20467;-70
2022/03/03 00:20:38;;;;;;;0.40;0.30;;;;;;;-1.20;76.88;101695.75;5093838;28;20445;-70
2022/03/03 00:23:04;;;;;;;0.40;0.30;;;;;;;-1.32;78.32;101685.66;5093889;28;20447;-70
2022/03/03 00:25:30;;;;;;;0.40;0.30;;;;;;;-1.35;77.88;101686.06;5093804;28;20820;-71
2022/03/03 00:27:57;;;;;;;0.40;0.30;;;;;;;-1.42;78.03;101687.84;5093715;28;20470;-70
2022/03/03 00:30:23;;;;;;;0.50;0.50;;;;;;;-1.41;78.17;101691.34;5093264;28;20482;-70
2022/03/03 00:32:51;;;;;;;23.80;22.50;;;;;;;-1.23;77.80;101685.53;5093624;28;20452;-70
2022/03/03 00:35:17;;;;;;;3.87;3.67;;;;;;;-1.11;76.87;101683.94;5093550;28;20462;-69
2022/03/03 00:37:44;;;;;;;0.40;0.30;;;;;;;-1.30;77.86;101675.66;5093174;28;20933;-69
2022/03/03 00:40:10;;;;;;;0.40;0.30;;;;;;;-1.15;78.31;101677.34;5093446;28;20448;-69
2022/03/03 00:42:37;;;;;;;3.33;3.07;;;;;;;-1.27;76.88;101675.28;5093639;28;20818;-70
2022/03/03 00:45:04;;;;;;;0.40;0.30;;;;;;;-1.36;77.62;101680.94;5093280;28;20510;-69
2022/03/03 00:47:31;;;;;;;0.40;0.30;;;;;;;-1.35;78.22;101671.94;5093312;28;20444;-70
2022/03/03 00:49:59;;;;;;;0.40;0.30;;;;;;;-1.26;78.17;101686.72;5092967;28;20992;-69
2022/03/03 00:52:25;;;;;;;0.40;0.30;;;;;;;-1.10;76.78;101680.28;5093325;28;20509;-69
2022/03/03 00:54:52;;;;;;;0.40;0.30;;;;;;;-1.10;78.25;101683.75;5093272;28;20537;-69
2022/03/03 00:57:18;;;;;;;0.87;0.87;;;;;;;-1.13;77.92;101691.28;5093432;28;20463;-70
2022/03/03 00:59:45;;;;;;;0.40;0.30;;;;;;;-1.19;78.82;101698.22;5093232;28;20440;-69
2022/03/03 01:02:11;;;;;;;0.40;0.30;;;;;;;-1.25;78.92;101690.19;5093325;28;20467;-70
2022/03/03 01:04:38;;;;;;;3.10;3.00;;;;;;;-1.23;78.54;101686.34;5093238;28;20460;-70
2022/03/03 01:07:06;;;;;;;0.40;0.30;;;;;;;-1.03;77.59;101686.44;5093007;28;20436;-69
2022/03/03 01:09:32;;;;;;;0.40;0.30;;;;;;;-1.11;78.13;101674.13;5093154;28;20483;-70
2022/03/03 01:11:59;;;;;;;0.50;0.30;;;;;;;-1.23;79.23;101677.53;5092896;28;20956;-70
2022/03/03 01:14:25;;;;;;;0.40;0.30;;;;;;;-1.16;79.11;101679.19;5093177;28;20821;-69
2022/03/03 01:16:53;;;;;;;0.40;0.30;;;;;;;-1.04;78.50;101684.78;5092946;28;20510;-70
2022/03/03 01:19:20;;;;;;;0.40;0.30;;;;;;;-1.19;78.87;101687.59;5093200;28;20425;-70
2022/03/03 01:21:46;;;;;;;0.40;0.30;;;;;;;-1.12;78.88;101677.78;5093095;28;20463;-69
2022/03/03 01:24:14;;;;;;;0.40;0.30;;;;;;;-1.22;79.31;101668.56;5092998;28;20463;-70
2022/03/03 01:26:40;;;;;;;0.40;0.30;;;;;;;-1.25;79.82;101664.44;5092713;28;20952;-69
2022/03/03 01:29:07;;;;;;;0.50;0.50;;;;;;;-1.31;79.69;101668.69;5092952;28;20556;-70
2022/03/03 01:31:34;;;;;;;0.40;0.30;;;;;;;-1.31;78.76;101665.22;5093032;28;20436;-70
2022/03/03 01:34:00;;;;;;;0.50;0.50;;;;;;;-1.36;78.69;101667.66;5092891;28;20471;-70
2022/03/03 01:36:27;;;;;;;0.50;0.50;;;;;;;-1.24;78.96;101667.91;5092996;28;20447;-69
2022/03/03 01:38:53;;;;;;;0.40;0.30;;;;;;;-1.37;78.88;101674.00;5092979;28;20448;-69
2022/03/03 01:41:21;;;;;;;0.40;0.30;;;;;;;-1.41;79.26;101667.44;5092958;28;20440;-69
2022/03/03 01:43:47;;;;;;;0.40;0.30;;;;;;;-1.46;80.60;101660.03;5096339;28;20973;-69
2022/03/03 01:46:14;;;;;;;0.40;0.30;;;;;;;-1.39;80.13;101655.56;5096779;28;20444;-69
2022/03/03 01:48:40;;;;;;;0.40;0.40;;;;;;;-1.30;79.48;101659.72;5096738;28;20484;-70
2022/03/03 01:51:07;;;;;;;0.40;0.30;;;;;;;-1.21;79.60;101656.91;5096639;28;20529;-70
2022/03/03 01:53:33;;;;;;;0.40;0.30;;;;;;;-1.16;80.51;101649.16;5096370;28;20452;-69
2022/03/03 01:56:00;;;;;;;0.40;0.30;;;;;;;-1.17;79.43;101648.31;5096318;28;20840;-70
2022/03/03 01:58:28;;;;;;;0.40;0.30;;;;;;;-1.27;79.17;101659.31;5096558;28;20440;-70
2022/03/03 02:00:54;;;;;;;0.50;0.50;;;;;;;-1.24;79.28;101662.59;5096492;28;20436;-70
2022/03/03 02:03:21;;;;;;;0.40;0.30;;;;;;;-1.46;80.71;101652.06;5096504;28;20440;-70
2022/03/03 02:05:47;;;;;;;0.40;0.30;;;;;;;-1.44;80.33;101655.34;5096433;28;20547;-70
2022/03/03 02:08:14;;;;;;;0.40;0.30;;;;;;;-1.43;80.45;101661.47;5096243;28;20469;-69
2022/03/03 02:10:40;;;;;;;0.40;0.30;;;;;;;-1.37;80.78;101652.72;5096146;28;20476;-70
2022/03/03 02:13:07;;;;;;;0.40;0.40;;;;;;;-1.35;80.38;101656.81;5096085;28;20863;-71
2022/03/03 02:15:35;;;;;;;0.40;0.30;;;;;;;-1.39;79.66;101652.09;5096528;28;20518;-70
2022/03/03 02:18:01;;;;;;;0.40;0.30;;;;;;;-1.50;80.99;101650.00;5096028;28;20483;-70
2022/03/03 02:20:31;;;;;;;0.40;0.30;;;;;;;-1.48;81.33;101646.13;5095757;28;20930;-70
2022/03/03 02:22:58;;;;;;;0.80;0.80;;;;;;;-1.48;81.78;101640.78;5096042;28;20440;-71
2022/03/03 02:25:26;;;;;;;1.03;1.03;;;;;;;-1.34;81.68;101639.03;5096015;28;20460;-71
2022/03/03 02:27:53;;;;;;;0.70;0.70;;;;;;;-1.09;80.50;101645.50;5095990;28;20977;-71
2022/03/03 02:30:20;;;;;;;0.40;0.30;;;;;;;-1.07;80.01;101640.00;5095948;28;20480;-70
2022/03/03 02:32:46;;;;;;;0.40;0.30;;;;;;;-1.04;80.57;101647.56;5096024;28;20820;-71
2022/03/03 02:35:13;;;;;;;0.40;0.30;;;;;;;-1.14;81.17;101644.47;5095881;28;20866;-71
2022/03/03 02:37:43;;;;;;;0.40;0.30;;;;;;;-1.09;81.25;101642.84;5095887;28;20472;-72
2022/03/03 02:40:12;;;;;;;2.77;2.57;;;;;;;-0.87;81.27;101638.25;5095556;28;20950;-71
2022/03/03 02:42:38;;;;;;;0.40;0.30;;;;;;;-0.63;81.09;101628.06;5095453;28;20933;-71
2022/03/03 02:45:06;;;;;;;0.40;0.30;;;;;;;-0.53;80.44;101617.88;5095687;28;20471;-70
2022/03/03 02:47:33;;;;;;;0.40;0.30;;;;;;;-0.65;79.42;101620.31;5095688;28;20428;-72
2022/03/03 02:49:59;;;;;;;0.40;0.30;;;;;;;-0.64;79.49;101632.56;5095587;28;20480;-71
2022/03/03 02:52:26;;;;;;;0.40;0.30;;;;;;;-0.56;79.90;101618.28;5095592;28;20478;-70
2022/03/03 02:54:53;;;;;;;0.70;0.70;;;;;;;-0.48;80.43;101615.44;5094033;28;21061;-71
2022/03/03 03:00:19;;;;;;;0.40;0.30;;;;;;;-0.42;80.89;101601.31;5013176;28;20606;-70
2022/03/03 03:02:45;;;;;;;0.40;0.30;;;;;;;-0.46;80.43;101600.06;5013069;28;20448;-70
2022/03/03 03:05:13;;;;;;;0.40;0.30;;;;;;;-0.46;80.42;101605.38;5048649;28;20838;-71
2022/03/03 03:07:39;;;;;;;0.40;0.30;;;;;;;-0.56;80.18;101607.63;5095340;28;20444;-71
2022/03/03 03:10:08;;;;;;;0.40;0.30;;;;;;;-0.51;80.13;101607.84;5095228;28;20563;-70
2022/03/03 03:12:34;;;;;;;0.40;0.30;;;;;;;-0.65;81.20;101600.88;5095223;28;20447;-70
2022/03/03 03:15:01;;;;;;;0.40;0.30;;;;;;;-0.52;80.61;101604.38;5095105;28;20828;-70
2022/03/03 03:17:27;;;;;;;0.40;0.30;;;;;;;-0.57;81.03;101593.50;5094945;28;20456;-70
2022/03/03 03:19:54;;;;;;;0.40;0.30;;;;;;;-0.63;80.78;101590.81;5095089;28;20470;-70
2022/03/03 03:22:20;;;;;;;0.40;0.30;;;;;;;-0.61;81.29;101589.63;5095021;28;20884;-70
2022/03/03 03:24:47;;;;;;;0.40;0.33;;;;;;;-0.41;81.25;101589.63;5094578;28;21094;-70
2022/03/03 03:27:14;;;;;;;0.40;0.30;;;;;;;-0.29;80.96;101582.69;5094908;28;20498;-70
2022/03/03 03:29:41;;;;;;;0.40;0.40;;;;;;;-0.33;80.19;101575.31;5094802;28;20487;-71
2022/03/03 03:32:07;;;;;;;0.90;0.90;;;;;;;-0.28;80.35;101560.34;5094827;28;20448;-70
2022/03/03 03:34:34;;;;;;;0.40;0.30;;;;;;;-0.40;80.67;101556.69;5094701;28;20514;-70
2022/03/03 03:37:00;;;;;;;0.40;0.30;;;;;;;-0.42;80.82;101549.94;5094721;28;20445;-70
2022/03/03 03:39:26;;;;;;;0.70;0.70;;;;;;;-0.44;81.26;101542.16;5094423;28;20822;-68
2022/03/03 03:41:53;;;;;;;0.50;0.40;;;;;;;-0.66;81.59;101538.88;5094630;28;20447;-68
2022/03/03 03:44:21;;;;;;;0.40;0.30;;;;;;;-0.78;81.91;101532.50;5094551;28;20465;-68
2022/03/03 03:46:47;;;;;;;0.40;0.30;;;;;;;-0.84;82.33;101547.44;5094521;28;20443;-69
2022/03/03 03:49:13;;;;;;;0.40;0.30;;;;;;;-0.76;81.73;101541.06;5094512;28;20440;-71
2022/03/03 03:51:40;;;;;;;0.40;0.30;;;;;;;-0.64;82.11;101530.66;5094093;28;21065;-71
2022/03/03 03:54:06;;;;;;;0.40;0.30;;;;;;;-0.79;81.62;101531.69;5094429;28;20460;-71
2022/03/03 03:56:33;;;;;;;0.40;0.30;;;;;;;-0.89;82.33;101533.91;5094186;28;20950;-71
2022/03/03 03:59:00;;;;;;;0.40;0.30;;;;;;;-0.97;82.59;101520.81;5094332;28;20476;-71
2022/03/03 04:01:30;;;;;;;0.40;0.30;;;;;;;-0.81;82.53;101515.09;5094316;28;20440;-71
2022/03/03 04:03:57;;;;;;;0.40;0.30;;;;;;;-0.91;82.01;101522.66;5093909;28;21178;-71
2022/03/03 04:06:23;;;;;;;0.40;0.30;;;;;;;-0.98;82.08;101518.34;5093869;28;20448;-71
2022/03/03 04:08:50;;;;;;;0.40;0.30;;;;;;;-0.99;82.50;101508.72;5093821;28;20490;-72
2022/03/03 04:11:16;;;;;;;0.40;0.30;;;;;;;-0.98;83.44;101513.00;5094020;28;20495;-71
2022/03/03 04:13:43;;;;;;;0.40;0.30;;;;;;;-1.10;83.62;101526.91;5093954;28;20475;-70
2022/03/03 04:16:09;;;;;;;2.47;2.30;;;;;;;-1.18;83.26;101526.28;5094000;28;20451;-71
2022/03/03 04:18:37;;;;;;;0.40;0.30;;;;;;;-1.23;84.25;101528.72;5093758;28;20980;-71
2022/03/03 04:21:05;;;;;;;0.40;0.30;;;;;;;-1.18;84.05;101534.25;5093909;28;20440;-71
2022/03/03 04:23:31;;;;;;;0.40;0.30;;;;;;;-1.25;83.63;101544.03;5093782;28;20973;-71
2022/03/03 04:25:58;;;;;;;0.77;0.77;;;;;;;-1.31;83.75;101548.31;5093806;28;20443;-71
2022/03/03 04:28:24;;;;;;;0.40;0.30;;;;;;;-1.42;84.15;101554.97;5093712;28;20440;-71
2022/03/03 04:30:51;;;;;;;0.40;0.30;;;;;;;-1.44;84.26;101549.06;5093698;28;20482;-70
2022/03/03 04:33:18;;;;;;;3.70;2.10;;;;;;;-1.45;85.00;101552.75;5093642;28;20547;-71
2022/03/03 04:35:45;;;;;;;0.40;0.30;;;;;;;-1.38;85.06;101560.72;5093672;28;20449;-70
2022/03/03 04:38:12;;;;;;;0.40;0.40;;;;;;;-1.36;85.27;101553.41;5093680;28;20447;-70
2022/03/03 04:40:38;;;;;;;0.40;0.30;;;;;;;-1.43;85.48;101560.50;5093616;28;20857;-70
2022/03/03 04:43:04;;;;;;;1.63;1.53;;;;;;;-1.49;85.12;101564.78;5093518;28;20448;-71
2022/03/03 04:45:32;;;;;;;0.40;0.30;;;;;;;-1.62;85.20;101567.38;5093421;28;20509;-70
2022/03/03 04:47:59;;;;;;;0.40;0.30;;;;;;;-1.51;85.21;101556.16;5093506;28;20449;-70
2022/03/03 04:50:25;;;;;;;32.00;29.70;;;;;;;-1.43;85.14;101556.00;5093054;28;20571;-70
2022/03/03 04:52:53;;;;;;;0.40;0.30;;;;;;;-1.54;84.25;101556.59;5093423;28;20429;-70
2022/03/03 04:55:20;;;;;;;0.40;0.30;;;;;;;-1.65;83.93;101560.59;5093448;28;20460;-71
2022/03/03 04:57:46;;;;;;;0.40;0.30;;;;;;;-1.79;84.29;101567.66;5093484;28;20436;-71
2022/03/03 05:00:13;;;;;;;0.40;0.30;;;;;;;-1.84;84.26;101562.13;5093060;28;20953;-70
2022/03/03 05:02:40;;;;;;;0.40;0.30;;;;;;;-1.88;84.57;101560.88;5093555;28;20440;-70
2022/03/03 05:05:07;;;;;;;0.40;0.30;;;;;;;-1.75;84.43;101554.00;5093263;28;20460;-70
2022/03/03 05:07:34;;;;;;;0.40;0.30;;;;;;;-1.78;84.78;101547.25;5093088;28;20443;-70
2022/03/03 05:10:02;;;;;;;1.63;1.53;;;;;;;-1.73;84.53;101558.09;5093179;28;20445;-70
2022/03/03 05:12:28;;;;;;;0.40;0.30;;;;;;;-1.76;86.40;101547.06;5093278;28;20449;-70
2022/03/03 05:14:54;;;;;;;0.40;0.30;;;;;;;-1.62;86.13;101544.28;5093428;28;20468;-71
2022/03/03 05:17:21;;;;;;;1.03;1.03;;;;;;;-1.61;86.69;101537.94;5095261;28;20463;-71
2022/03/03 05:19:47;;;;;;;0.40;0.30;;;;;;;-1.76;86.87;101541.75;5098375;28;20463;-71
2022/03/03 05:22:14;;;;;;;0.40;0.30;;;;;;;-1.88;86.98;101546.78;5097426;28;20436;-70
2022/03/03 05:24:40;;;;;;;0.40;0.30;;;;;;;-1.88;86.52;101536.97;5097270;28;20464;-70
2022/03/03 05:27:08;;;;;;;0.40;0.30;;;;;;;-1.69;86.84;101529.31;5097248;28;20436;-70
2022/03/03 05:29:35;;;;;;;0.40;0.30;;;;;;;-1.73;86.04;101531.53;5097356;28;20849;-70
2022/03/03 05:32:01;;;;;;;0.40;0.30;;;;;;;-1.85;86.65;101531.28;5097051;28;20567;-70
2022/03/03 05:34:28;;;;;;;0.40;0.30;;;;;;;-2.02;87.59;101532.63;5097064;28;20456;-70
2022/03/03 05:36:55;;;;;;;0.40;0.30;;;;;;;-1.86;87.50;101527.00;5097321;28;20443;-70
2022/03/03 05:39:23;;;;;;;0.60;0.57;;;;;;;-1.64;87.68;101521.56;5096686;28;20478;-71
2022/03/03 05:41:49;;;;;;;0.40;0.30;;;;;;;-1.64;87.96;101519.78;5096867;28;20440;-70
2022/03/03 05:44:17;;;;;;;0.40;0.30;;;;;;;-1.79;88.41;101506.59;5097718;28;20827;-70
2022/03/03 05:46:44;;;;;;;0.40;0.30;;;;;;;-1.82;88.26;101504.31;5096308;28;20448;-71
2022/03/03 05:49:11;;;;;;;0.40;0.30;;;;;;;-1.84;88.32;101506.38;5096564;28;20854;-71
2022/03/03 05:51:38;;;;;;;1.43;1.40;;;;;;;-1.99;87.40;101504.84;5096263;28;21023;-71
2022/03/03 05:54:05;;;;;;;1.13;1.13;;;;;;;-1.86;87.62;101505.75;5096544;28;20472;-71
2022/03/03 05:56:36;;;;;;;0.40;0.30;;;;;;;-1.66;87.19;101502.38;5096733;28;20440;-71
2022/03/03 05:59:07;;;;;;;0.40;0.30;;;;;;;-1.74;86.48;101502.53;5096647;28;20428;-71
2022/03/03 06:01:38;;;;;;;0.40;0.30;;;;;;;-1.88;86.36;101499.00;5096619;28;20437;-71
2022/03/03 06:04:07;;;;;;;3.70;3.53;;;;;;;-1.90;86.26;101507.16;5096501;28;20551;-72
2022/03/03 06:06:37;;;;;;;0.40;0.30;;;;;;;-1.85;86.10;101518.03;5096456;28;20447;-71
2022/03/03 06:09:09;;;;;;;0.40;0.30;;;;;;;-1.93;86.01;101520.81;5096427;28;20436;-71
2022/03/03 06:11:46;;;;;;;0.40;0.30;;;;;;;-2.03;87.31;101541.59;5096096;28;20969;-72
2022/03/03 06:14:16;;;;;;;0.40;0.30;;;;;;;-1.98;86.79;101543.66;5096026;28;20537;-71
2022/03/03 06:16:45;;;;;;;0.40;0.30;;;;;;;-2.14;86.20;101547.44;5096353;28;20925;-71
2022/03/03 06:19:11;;;;;;;0.40;0.30;;;;;;;-2.09;87.37;101552.97;5096529;28;20433;-72
2022/03/03 06:21:38;;;;;;;0.40;0.30;;;;;;;-1.98;87.12;101560.41;5096180;28;20444;-72
2022/03/03 06:24:05;;;;;;;0.40;0.30;;;;;;;-1.98;88.46;101555.09;5096062;28;20533;-72
2022/03/03 06:26:31;;;;;;;0.40;0.30;;;;;;;-1.88;88.61;101557.41;5096140;28;20531;-72
2022/03/03 06:28:58;;;;;;;0.40;0.30;;;;;;;-1.84;88.79;101556.81;5095887;28;20447;-72
2022/03/03 06:31:26;;;;;;;0.40;0.30;;;;;;;-1.87;90.39;101551.88;5095675;28;21017;-71
2022/03/03 06:33:54;;;;;;;0.40;0.40;;;;;;;-1.85;92.49;101552.53;5096072;28;20471;-72
2022/03/03 06:36:20;;;;;;;0.40;0.30;;;;;;;-1.84;93.18;101556.81;5095970;28;20456;-71
2022/03/03 06:38:47;;;;;;;0.40;0.30;;;;;;;-1.73;94.03;101559.94;5095927;28;20816;-72
2022/03/03 06:41:13;;;;;;;4.80;4.53;;;;;;;-1.59;93.89;101559.84;5095748;28;20444;-71
2022/03/03 06:43:41;;;;;;;0.50;0.50;;;;;;;-1.55;94.72;101557.59;5095743;28;20463;-72
2022/03/03 06:46:08;;;;;;;0.40;0.30;;;;;;;-1.37;94.09;101573.84;5095669;28;20538;-72
2022/03/03 06:48:35;;;;;;;0.40;0.30;;;;;;;-1.24;93.48;101572.22;5095541;28;20463;-72
2022/03/03 06:51:05;;;;;;;0.40;0.30;;;;;;;-1.32;93.83;101582.03;5095609;28;20484;-72
2022/03/03 06:53:35;;;;;;;0.40;0.30;;;;;;;-1.34;94.82;101583.22;5095599;28;20460;-72
2022/03/03 06:56:05;;;;;;;0.40;0.30;;;;;;;-1.19;94.80;101593.75;5095406;28;20818;-71
2022/03/03 06:58:32;;;;;;;0.40;0.30;;;;;;;-1.08;94.89;101601.13;5095519;28;20441;-71
2022/03/03 07:01:03;;;;;;;0.40;0.30;;;;;;;-0.97;94.94;101589.09;5095526;28;20450;-70
2022/03/03 07:03:31;;;;;;;0.40;0.30;;;;;;;-1.00;95.50;101582.34;5095000;28;20551;-70
2022/03/03 07:05:57;;;;;;;0.40;0.30;;;;;;;-0.98;96.08;101585.63;5095392;28;20453;-70
2022/03/03 07:08:25;;;;;;;0.40;0.30;;;;;;;-0.92;95.92;101581.38;5095413;28;20444;-70
2022/03/03 07:10:52;;;;;;;0.50;0.30;;;;;;;-0.77;95.96;101585.47;5095211;28;20479;-69
2022/03/03 07:13:18;;;;;;;0.40;0.30;;;;;;;-0.67;96.08;101578.94;5095202;28;20486;-70
2022/03/03 07:15:50;;;;;;;0.40;0.30;;;;;;;-0.76;96.18;101592.44;5095243;28;20447;-70
2022/03/03 07:18:19;;;;;;;0.40;0.30;;;;;;;-0.68;95.74;101603.91;5094866;28;20547;-69
2022/03/03 07:20:54;;;;;;;0.50;0.30;;;;;;;-0.60;96.54;101601.06;5095105;28;20448;-70
2022/03/03 07:23:35;;;;;;;0.40;0.30;;;;;;;-0.53;96.19;101607.25;5095006;28;20435;-71
2022/03/03 07:26:03;;;;;;;0.40;0.30;;;;;;;-0.54;96.15;101605.56;5095041;28;20461;-72
2022/03/03 07:28:31;;;;;;;0.40;0.30;;;;;;;-0.47;95.31;101603.75;5094943;28;20443;-72
2022/03/03 07:31:01;;;;;;;0.40;0.30;;;;;;;-0.49;95.41;101605.78;5094725;28;20533;-70
2022/03/03 07:33:48;;;;;;;0.40;0.30;;;;;;;-0.56;96.50;101607.63;5094821;28;20443;-71
2022/03/03 07:36:19;;;;;;;0.50;0.30;;;;;;;-0.53;96.25;101617.88;5094826;28;20435;-71
2022/03/03 07:38:56;;;;;;;0.40;0.30;;;;;;;-0.40;96.30;101609.06;5094467;28;20910;-71
2022/03/03 07:41:25;;;;;;;2.83;2.67;;;;;;;-0.29;95.98;101619.94;5094105;28;20448;-70
2022/03/03 07:43:51;;;;;;;0.40;0.30;;;;;;;-0.24;94.83;101615.84;5094471;28;20456;-71
2022/03/03 07:46:18;;;;;;;1.83;1.73;;;;;;;-0.10;95.04;101612.16;5094611;28;20446;-70
2022/03/03 07:48:46;;;;;;;0.40;0.40;;;;;;;-0.04;94.82;101611.38;5094230;28;20941;-70
2022/03/03 07:51:13;;;;;;;0.40;0.30;;;;;;;0.01;93.21;101614.22;5094350;28;20488;-71
2022/03/03 07:53:39;;;;;;;0.40;0.30;;;;;;;-0.05;93.00;101615.03;5094363;28;20461;-70
2022/03/03 07:56:09;;;;;;;0.40;0.30;;;;;;;0.00;92.70;101612.59;5094545;28;20930;-70
2022/03/03 07:58:40;;;;;;;0.40;0.30;;;;;;;0.06;93.06;101616.28;5093969;28;21032;-71
2022/03/03 08:01:10;;;;;;;0.40;0.30;;;;;;;0.05;92.82;101614.66;5094457;28;20428;-70
2022/03/03 08:03:38;;;;;;;0.40;0.30;;;;;;;0.11;92.45;101611.97;5094278;28;20465;-70
2022/03/03 08:06:05;;;;;;;0.40;0.30;;;;;;;0.16;92.21;101609.50;5094207;28;20444;-70
2022/03/03 08:08:32;;;;;;;0.40;0.30;;;;;;;0.12;92.94;101626.09;5094186;28;20444;-71
2022/03/03 08:11:02;;;;;;;0.40;0.30;;;;;;;0.17;92.59;101629.78;5094051;28;20444;-73
2022/03/03 08:13:31;;;;;;;0.40;0.30;;;;;;;0.23;92.91;101628.97;5094090;28;20464;-70
2022/03/03 08:15:58;;;;;;;0.40;0.30;;;;;;;0.36;93.22;101635.31;5093975;28;20448;-70
2022/03/03 08:18:31;;;;;;;0.40;0.30;;;;;;;0.45;93.59;101634.06;5093607;28;20464;-70
2022/03/03 08:21:00;;;;;;;0.40;0.30;;;;;;;0.49;93.17;101633.44;5093963;28;20431;-70
2022/03/03 08:23:27;;;;;;;0.90;0.90;;;;;;;0.52;93.55;101639.38;5093886;28;20455;-70
2022/03/03 08:25:55;;;;;;;0.40;0.30;;;;;;;0.60;93.56;101645.31;5093842;28;20451;-71
2022/03/03 08:28:23;;;;;;;0.40;0.30;;;;;;;0.61;93.78;101648.78;5093573;28;20956;-70
2022/03/03 08:30:56;;;;;;;0.40;0.30;;;;;;;0.68;93.77;101653.06;5093748;28;20437;-70
2022/03/03 08:33:36;;;;;;;0.40;0.30;;;;;;;0.65;93.61;101645.50;5094055;28;20420;-70
2022/03/03 08:36:07;;;;;;;0.40;0.30;;;;;;;0.41;94.45;101640.84;5093431;28;20802;-69
2022/03/03 08:38:36;;;;;;;0.40;0.30;;;;;;;0.34;94.83;101656.81;5093705;28;20478;-70
2022/03/03 08:41:04;;;;;;;0.40;0.30;;;;;;;0.27;95.31;101649.84;5093400;28;20436;-70
2022/03/03 08:43:32;;;;;;;0.40;0.30;;;;;;;0.34;95.35;101634.69;5093516;28;20457;-70
2022/03/03 08:46:04;;;;;;;0.40;0.30;;;;;;;0.34;95.71;101638.16;5093262;28;20829;-70
2022/03/03 08:48:32;;;;;;;0.40;0.30;;;;;;;0.50;95.75;101640.41;5093617;28;20429;-70
2022/03/03 08:51:00;;;;;;;0.40;0.30;;;;;;;0.64;95.78;101643.03;5092997;28;20489;-70
2022/03/03 08:53:26;;;;;;;0.40;0.30;;;;;;;0.75;95.28;101637.06;5093005;28;20440;-70
2022/03/03 08:55:54;;;;;;;0.40;0.30;;;;;;;0.86;94.72;101635.59;5093494;28;20494;-70
2022/03/03 08:58:21;;;;;;;0.40;0.30;;;;;;;0.92;94.59;101643.56;5093390;28;20440;-70
2022/03/03 09:00:48;;;;;;;0.40;0.30;;;;;;;1.06;94.56;101639.00;5093367;28;20436;-70
2022/03/03 09:03:18;;;;;;;0.40;0.30;;;;;;;1.21;93.78;101647.56;5093207;28;20948;-70
2022/03/03 09:05:45;;;;;;;0.40;0.30;;;;;;;1.34;93.15;101645.88;5093640;28;20436;-70
2022/03/03 09:08:11;;;;;;;0.40;0.30;;;;;;;1.36;92.09;101649.13;5093379;28;20445;-70
2022/03/03 09:10:38;;;;;;;0.40;0.30;;;;;;;1.37;92.28;101648.91;5093035;28;20870;-70
2022/03/03 09:13:04;;;;;;;0.40;0.30;;;;;;;1.31;91.77;101652.44;5093270;28;20537;-70
2022/03/03 09:15:31;;;;;;;0.40;0.30;;;;;;;1.34;91.80;101648.53;5093213;28;20474;-70
2022/03/03 09:17:58;;;;;;;0.40;0.30;;;;;;;1.43;91.65;101647.25;5093116;28;20496;-69
2022/03/03 09:20:25;;;;;;;0.40;0.30;;;;;;;1.58;91.25;101652.28;5093263;28;20447;-69
2022/03/03 09:22:52;;;;;;;0.40;0.30;;;;;;;1.55;90.50;101647.38;5093165;28;20502;-69
2022/03/03 09:25:18;;;;;;;0.50;0.30;;;;;;;1.31;90.43;101651.63;5093156;28;20460;-70
2022/03/03 09:27:45;;;;;;;0.40;0.30;;;;;;;1.32;91.07;101647.91;5092862;28;20933;-70
2022/03/03 09:30:13;;;;;;;0.40;0.30;;;;;;;1.29;91.31;101651.03;5093054;28;20447;-70
2022/03/03 09:32:41;;;;;;;0.40;0.30;;;;;;;1.32;90.92;101643.38;5092648;28;21050;-69
2022/03/03 09:35:08;;;;;;;0.40;0.30;;;;;;;1.36;91.05;101655.28;5093019;28;20460;-70
2022/03/03 09:37:36;;;;;;;0.40;0.30;;;;;;;1.43;90.71;101661.41;5093129;28;20443;-70
2022/03/03 09:40:04;;;;;;;0.40;0.30;;;;;;;1.48;90.19;101658.09;5093057;28;20436;-70
2022/03/03 09:42:33;;;;;;;0.40;0.30;;;;;;;1.54;90.00;101667.91;5093077;28;20444;-70
2022/03/03 09:45:00;;;;;;;0.40;0.30;;;;;;;1.65;89.46;101659.22;5092945;28;20490;-69
2022/03/03 09:47:27;;;;;;;0.40;0.30;;;;;;;1.79;89.09;101665.31;5092620;28;20961;-70
2022/03/03 09:49:53;;;;;;;0.40;0.30;;;;;;;1.90;88.59;101663.78;5092638;28;20997;-70
2022/03/03 09:52:21;;;;;;;0.40;0.30;;;;;;;1.96;86.98;101660.25;5092881;28;20491;-70
2022/03/03 09:54:50;;;;;;;0.40;0.30;;;;;;;1.97;86.49;101670.72;5092844;28;20460;-70
2022/03/03 09:57:17;;;;;;;0.40;0.30;;;;;;;1.97;86.72;101667.22;5092951;28;20476;-69
2022/03/03 09:59:44;;;;;;;0.40;0.30;;;;;;;2.00;87.77;101667.63;5092868;28;20799;-71
2022/03/03 10:02:12;;;;;;;0.40;0.30;;;;;;;2.08;87.77;101668.38;5092560;28;20966;-71
2022/03/03 10:04:38;;;;;;;0.40;0.30;;;;;;;2.07;87.81;101678.25;5096153;28;20533;-70
2022/03/03 10:07:06;;;;;;;0.40;0.30;;;;;;;2.07;86.34;101675.56;5096553;28;20440;-70
2022/03/03 10:09:33;;;;;;;0.40;0.30;;;;;;;2.10;86.71;101677.00;5096468;28;20444;-70
2022/03/03 10:12:02;;;;;;;0.40;0.30;;;;;;;2.14;86.12;101667.50;5096048;28;21005;-70
2022/03/03 10:14:31;;;;;;;0.40;0.30;;;;;;;2.20;85.44;101670.13;5095455;28;20486;-71
2022/03/03 10:16:58;;;;;;;0.40;0.30;;;;;;;2.23;85.01;101680.38;5095808;28;20543;-71
2022/03/03 10:19:24;;;;;;;0.40;0.30;;;;;;;2.12;84.23;101670.38;5095703;28;20799;-72
2022/03/03 10:21:51;;;;;;;0.40;0.30;;;;;;;2.07;84.91;101664.88;5095688;28;20444;-72
2022/03/03 10:24:19;;;;;;;0.40;0.30;;;;;;;2.14;85.67;101663.00;5095482;28;20460;-72
2022/03/03 10:26:47;;;;;;;0.40;0.30;;;;;;;2.19;85.36;101665.81;5095613;28;20866;-71
2022/03/03 10:29:18;;;;;;;0.40;0.30;;;;;;;2.24;85.10;101674.00;5095501;28;20436;-71
2022/03/03 10:31:49;;;;;;;0.40;0.30;;;;;;;2.34;84.33;101672.69;5095391;28;20423;-72
2022/03/03 10:34:16;;;;;;;0.40;0.30;;;;;;;2.38;83.88;101669.34;5095337;28;20455;-71
2022/03/03 10:36:43;;;;;;;0.50;0.40;;;;;;;2.43;83.33;101676.72;5095047;28;20531;-72
2022/03/03 10:39:09;;;;;;;0.40;0.30;;;;;;;2.31;84.71;101673.94;5095260;28;20447;-72
2022/03/03 10:41:38;;;;;;;0.40;0.30;;;;;;;2.33;84.23;101679.88;5095307;28;20451;-72
2022/03/03 10:44:07;;;;;;;0.40;0.30;;;;;;;2.31;83.99;101673.94;5095165;28;20467;-71
2022/03/03 10:46:37;;;;;;;0.40;0.30;;;;;;;2.44;83.79;101675.69;5095235;28;20809;-71
2022/03/03 10:49:18;;;;;;;0.40;0.30;;;;;;;2.56;84.52;101684.59;5095135;28;20444;-72
2022/03/03 10:51:44;;;;;;;0.40;0.30;;;;;;;2.71;84.35;101686.94;5095111;28;20443;-69
2022/03/03 10:54:11;;;;;;;0.63;0.63;;;;;;;2.80;82.87;101690.16;5095014;28;20460;-69
2022/03/03 10:56:43;;;;;;;0.40;0.30;;;;;;;2.76;82.08;101685.25;5094946;28;20457;-71
2022/03/03 10:59:17;;;;;;;0.40;0.30;;;;;;;2.73;82.10;101674.16;5095042;28;20429;-71
2022/03/03 11:01:45;;;;;;;0.40;0.40;;;;;;;2.81;81.75;101681.91;5094991;28;20420;-73
2022/03/03 11:04:17;;;;;;;0.40;0.30;;;;;;;2.75;81.74;101688.97;5094887;28;20518;-69
2022/03/03 11:06:43;;;;;;;0.40;0.30;;;;;;;2.81;81.81;101689.91;5094794;28;20448;-69
2022/03/03 11:09:10;;;;;;;0.40;0.30;;;;;;;2.82;81.72;101683.53;5094409;28;20933;-69
2022/03/03 11:11:37;;;;;;;0.40;0.30;;;;;;;2.86;80.50;101687.41;5094660;28;20821;-68
2022/03/03 11:14:05;;;;;;;0.40;0.30;;;;;;;2.90;80.60;101677.06;5093803;28;20907;-69
2022/03/03 11:16:32;;;;;;;0.40;0.30;;;;;;;2.97;80.95;101667.13;5094218;28;20444;-69
2022/03/03 11:19:00;;;;;;;0.40;0.30;;;;;;;3.08;82.00;101663.69;5094949;28;20441;-69
2022/03/03 11:21:27;;;;;;;0.40;0.30;;;;;;;3.20;82.18;101656.53;5094420;28;20451;-69
2022/03/03 11:23:56;;;;;;;0.40;0.30;;;;;;;3.36;81.92;101662.28;5094309;28;20489;-69
2022/03/03 11:26:25;;;;;;;0.40;0.30;;;;;;;3.41;81.38;101674.00;5094468;28;20457;-69
2022/03/03 11:29:03;;;;;;;0.40;0.30;;;;;;;3.23;80.45;101661.44;5094260;28;20436;-69
2022/03/03 11:31:32;;;;;;;0.40;0.30;;;;;;;3.19;80.35;101656.78;5094304;28;20432;-69